West End, Texas
Current Conditions -  °F | °C
As of 2:35 PM on Monday 26 Jan 2015 (Local Time) from KARM Reporting Station
Clear Clear  
Wind Chill: 19°   Ceiling: Unl
Heat Index: 19°   Visibility: 10mi
Dew Point:   Wind: 3mph
Humidity: 38%   Direction: 280°W
Pressure: 30.18"   Gusts: NA
Location:  29.1916°N, 96.2212°W
Report Text: KARM 262035Z AUTO 28003KT 10SM CLR 19/04 A3018 RMK AO2 T01860039
Loading
Personal Weather Stations






























Interactive Weather Map New forecast layout! Learn more

10-Day Weather Forecast

Advertisements
Track Severe Weather on mobile